createdAt,value
2023-03-28T00:02:08.930Z,100738.63
2023-03-28T00:07:13.002Z,100680.47
2023-03-28T00:12:16.869Z,100738.41
2023-03-28T00:17:20.987Z,100739.19
2023-03-28T00:22:24.885Z,100715.41
2023-03-28T00:27:28.667Z,100710.56
2023-03-28T00:32:33.009Z,100741.59
2023-03-28T00:37:36.894Z,100746.41
2023-03-28T00:42:44.309Z,100729.81
2023-03-28T00:48:02.908Z,100738.66
2023-03-28T00:53:10.459Z,100723.16
2023-03-28T00:58:19.484Z,100730.00
2023-03-28T01:03:30.493Z,100740.28
2023-03-28T01:08:39.696Z,100751.88
2023-03-28T01:13:49.492Z,100738.25
2023-03-28T01:18:54.195Z,100700.88
2023-03-28T01:24:32.075Z,100719.72
2023-03-28T01:30:10.459Z,100726.97
2023-03-28T01:36:08.360Z,100721.56
2023-03-28T01:41:21.179Z,100721.94
2023-03-28T01:46:47.137Z,100720.78
2023-03-28T01:52:06.045Z,100725.47
2023-03-28T01:57:20.587Z,100730.06
2023-03-28T02:02:42.929Z,100722.78
2023-03-28T02:08:10.750Z,100705.69
2023-03-28T02:13:27.876Z,100714.25
2023-03-28T02:18:55.390Z,100707.72
2023-03-28T02:24:37.826Z,100703.16
2023-03-28T02:29:50.326Z,100694.88
2023-03-28T02:35:08.394Z,100707.66
2023-03-28T02:40:45.696Z,100718.25
2023-03-28T02:46:19.074Z,100709.03
2023-03-28T02:51:31.101Z,100705.50
2023-03-28T02:56:51.705Z,100709.00
2023-03-28T03:02:09.374Z,100713.34
2023-03-28T03:07:14.542Z,100718.09
2023-03-28T03:12:18.886Z,100719.34
2023-03-28T03:17:22.811Z,100677.72
2023-03-28T03:22:27.129Z,100719.91
2023-03-28T03:27:32.427Z,100725.94
2023-03-28T03:32:37.449Z,100726.41
2023-03-28T03:37:42.077Z,100678.72
2023-03-28T03:42:46.169Z,100720.81
2023-03-28T03:47:50.077Z,100727.47
2023-03-28T03:52:54.099Z,100725.44
2023-03-28T03:58:04.344Z,100719.56
2023-03-28T04:03:09.233Z,100725.34
2023-03-28T04:08:28.666Z,100729.41
2023-03-28T04:13:32.572Z,100725.03
2023-03-28T04:18:39.514Z,100676.50
2023-03-28T04:23:48.990Z,100706.75
2023-03-28T04:29:04.534Z,100726.19
2023-03-28T04:34:11.770Z,100670.59
2023-03-28T04:39:27.936Z,100646.44
2023-03-28T04:44:41.488Z,100702.75
2023-03-28T04:49:49.508Z,100695.47
2023-03-28T04:54:53.706Z,100705.28
2023-03-28T04:59:59.392Z,100698.22
2023-03-28T05:05:29.712Z,100695.06
2023-03-28T05:10:34.538Z,100712.94
2023-03-28T05:15:43.307Z,100719.47
2023-03-28T05:21:06.830Z,100722.06
2023-03-28T05:26:11.403Z,100731.09
2023-03-28T05:31:18.018Z,100703.09
2023-03-28T05:36:27.073Z,100669.00
2023-03-28T05:41:30.928Z,100679.88
2023-03-28T05:46:35.053Z,100677.03
2023-03-28T05:51:38.968Z,100700.50
2023-03-28T05:56:43.127Z,100675.28
2023-03-28T06:01:47.210Z,100691.78
2023-03-28T06:06:53.412Z,100695.97
2023-03-28T06:12:07.077Z,100691.03
2023-03-28T06:17:14.200Z,100675.28
2023-03-28T06:22:28.294Z,100666.19
2023-03-28T06:27:36.540Z,100678.47
2023-03-28T06:32:40.559Z,100652.22
2023-03-28T06:37:44.612Z,100660.25
2023-03-28T06:42:52.477Z,100665.28
2023-03-28T06:48:00.184Z,100660.63
2023-03-28T06:53:39.116Z,100656.34
2023-03-28T06:58:43.927Z,100636.47
2023-03-28T07:03:52.172Z,100644.34
2023-03-28T07:09:00.017Z,100627.19
2023-03-28T07:14:15.155Z,100632.13
2023-03-28T07:19:19.376Z,100636.75
2023-03-28T07:24:25.195Z,100618.16
2023-03-28T07:29:39.170Z,100596.44
2023-03-28T07:34:43.713Z,100586.66
2023-03-28T07:39:55.465Z,100576.91
2023-03-28T07:45:01.595Z,100572.94
2023-03-28T07:50:07.250Z,100590.38
2023-03-28T07:55:11.066Z,100600.28
2023-03-28T08:00:20.401Z,100585.28
2023-03-28T08:05:42.377Z,100561.22
2023-03-28T08:10:51.782Z,100560.28
2023-03-28T08:15:57.947Z,100544.50
2023-03-28T08:21:04.582Z,100545.97
2023-03-28T08:26:10.681Z,100548.56
2023-03-28T08:31:18.670Z,100550.63
2023-03-28T08:36:29.143Z,100580.44
2023-03-28T08:42:10.131Z,100567.91
2023-03-28T08:47:20.313Z,100547.25
2023-03-28T08:52:27.075Z,100545.56
2023-03-28T08:57:35.239Z,100498.22
2023-03-28T09:02:39.159Z,100561.66
2023-03-28T09:07:56.572Z,100564.16
2023-03-28T09:13:20.027Z,100551.00
2023-03-28T09:18:31.571Z,100545.34
2023-03-28T09:24:18.436Z,100542.75
2023-03-28T09:29:51.232Z,100530.03
2023-03-28T09:34:57.127Z,100518.81
2023-03-28T09:40:15.170Z,100517.13
2023-03-28T09:45:50.839Z,100521.75
2023-03-28T09:51:03.223Z,100525.28
2023-03-28T09:56:31.208Z,100531.84
2023-03-28T10:01:47.764Z,100525.25
2023-03-28T10:07:44.856Z,100551.97
2023-03-28T10:13:05.918Z,100536.53
2023-03-28T10:18:27.152Z,100547.06
2023-03-28T10:24:05.120Z,100533.13
2023-03-28T10:29:09.863Z,100543.66
2023-03-28T10:34:30.330Z,100535.16
2023-03-28T10:40:01.274Z,100529.66
2023-03-28T10:45:43.285Z,100527.25
2023-03-28T10:50:54.055Z,100445.69
2023-03-28T10:56:14.982Z,100493.75
2023-03-28T11:01:31.996Z,100493.25
2023-03-28T11:07:19.789Z,100507.53
2023-03-28T11:12:58.455Z,100510.47
2023-03-28T11:18:41.052Z,100508.06
2023-03-28T11:24:14.276Z,100496.47
2023-03-28T11:29:49.964Z,100487.00
2023-03-28T11:35:08.079Z,100491.31
2023-03-28T11:40:24.520Z,100485.47
2023-03-28T11:45:52.662Z,100481.63
2023-03-28T11:51:09.426Z,100482.56
2023-03-28T11:56:46.928Z,100479.75
2023-03-28T12:02:20.001Z,100481.00
2023-03-28T12:07:36.900Z,100470.88
2023-03-28T12:13:12.160Z,100471.22
2023-03-28T12:18:58.764Z,100470.75
2023-03-28T12:24:30.522Z,100448.63
2023-03-28T12:30:01.407Z,100476.47
2023-03-28T12:35:18.878Z,100472.59
2023-03-28T12:40:53.688Z,100481.66
2023-03-28T12:46:06.978Z,100471.94
2023-03-28T12:51:28.299Z,100473.94
2023-03-28T12:56:32.972Z,100466.28
2023-03-28T13:01:57.745Z,100470.66
2023-03-28T13:07:24.905Z,100434.00
2023-03-28T13:12:37.828Z,100463.63
2023-03-28T13:18:08.672Z,100465.47
2023-03-28T13:23:18.608Z,100469.22
2023-03-28T13:28:31.884Z,100450.13
2023-03-28T13:33:44.922Z,100454.50
2023-03-28T13:39:08.513Z,100465.09
2023-03-28T13:44:19.184Z,100421.13
2023-03-28T13:49:47.245Z,100458.63
2023-03-28T13:54:57.185Z,100461.72
2023-03-28T14:00:05.645Z,100460.03
2023-03-28T14:05:30.361Z,100454.47
2023-03-28T14:10:37.686Z,100456.53
2023-03-28T14:15:44.407Z,100459.03
2023-03-28T14:20:48.394Z,100452.34
2023-03-28T14:25:52.405Z,100452.44
2023-03-28T14:30:57.643Z,100439.81
2023-03-28T14:36:04.675Z,100435.16
2023-03-28T14:41:22.379Z,100413.44
2023-03-28T14:46:30.113Z,100399.66
2023-03-28T14:52:20.945Z,100425.03
2023-03-28T14:57:25.983Z,100422.72
2023-03-28T15:02:36.506Z,100419.19
2023-03-28T15:07:40.614Z,100416.97
2023-03-28T15:13:25.154Z,100409.56
2023-03-28T15:18:34.822Z,100401.03
2023-03-28T15:23:44.551Z,100404.56
2023-03-28T15:28:49.766Z,100407.44
2023-03-28T15:33:54.807Z,100373.53
2023-03-28T15:39:27.392Z,100356.00
2023-03-28T15:44:39.309Z,100376.13
2023-03-28T15:49:43.318Z,100332.19
2023-03-28T15:54:53.607Z,100365.19
2023-03-28T15:59:59.395Z,100379.31
2023-03-28T16:05:07.255Z,100364.66
2023-03-28T16:10:14.361Z,100358.59
2023-03-28T16:15:38.539Z,100347.38
2023-03-28T16:21:04.886Z,100346.44
2023-03-28T16:26:09.058Z,100361.22
2023-03-28T16:31:16.580Z,100360.28
2023-03-28T16:36:20.581Z,100344.03
2023-03-28T16:41:24.585Z,100352.66
2023-03-28T16:46:28.477Z,100351.19
2023-03-28T16:51:32.841Z,100345.16
2023-03-28T16:56:37.500Z,100296.03
2023-03-28T17:01:44.057Z,100344.50
2023-03-28T17:06:48.451Z,100346.94
2023-03-28T17:11:52.686Z,100344.31
2023-03-28T17:16:56.886Z,100341.81
2023-03-28T17:22:01.731Z,100320.88
2023-03-28T17:27:06.420Z,100343.03
2023-03-28T17:32:10.339Z,100333.56
2023-03-28T17:37:15.119Z,100339.06
2023-03-28T17:42:19.246Z,100335.63
2023-03-28T17:47:23.750Z,100339.97
2023-03-28T17:52:30.968Z,100347.03
2023-03-28T17:57:35.025Z,100345.38
2023-03-28T18:02:41.097Z,100342.97
2023-03-28T18:07:57.371Z,100346.41
2023-03-28T18:13:02.139Z,100330.06
2023-03-28T18:18:06.397Z,100326.19
2023-03-28T18:23:10.567Z,100321.59
2023-03-28T18:28:14.492Z,100302.50
2023-03-28T18:33:19.662Z,100334.81
2023-03-28T18:38:23.794Z,100339.81
2023-03-28T18:43:29.021Z,100337.22
2023-03-28T18:48:34.155Z,100337.13
2023-03-28T18:53:41.002Z,100319.03
2023-03-28T18:58:46.974Z,100318.19
2023-03-28T19:03:51.041Z,100298.03
2023-03-28T19:08:55.507Z,100309.91
2023-03-28T19:13:59.345Z,100296.28
2023-03-28T19:19:04.506Z,100313.72
2023-03-28T19:24:09.156Z,100309.81
2023-03-28T19:29:12.986Z,100287.66
2023-03-28T19:34:21.453Z,100293.97
2023-03-28T19:39:25.607Z,100294.72
2023-03-28T19:44:29.528Z,100293.03
2023-03-28T19:49:33.507Z,100281.25
2023-03-28T19:54:38.382Z,100281.91
2023-03-28T19:59:42.423Z,100235.63
2023-03-28T20:04:46.624Z,100287.28
2023-03-28T20:09:50.749Z,100275.59
2023-03-28T20:14:56.740Z,100277.38
2023-03-28T20:20:01.048Z,100272.19
2023-03-28T20:25:06.643Z,100270.50
2023-03-28T20:30:11.945Z,100275.78
2023-03-28T20:35:16.116Z,100266.72
2023-03-28T20:40:21.478Z,100277.28
2023-03-28T20:45:25.579Z,100263.66
2023-03-28T20:50:42.164Z,100258.50
2023-03-28T20:55:46.205Z,100254.00
2023-03-28T21:00:54.293Z,100253.25
2023-03-28T21:05:58.313Z,100245.28
2023-03-28T21:11:02.472Z,100244.38
2023-03-28T21:16:07.751Z,100197.88
2023-03-28T21:21:13.134Z,100245.06
2023-03-28T21:26:23.509Z,100249.25
2023-03-28T21:31:29.581Z,100244.78
2023-03-28T21:36:33.964Z,100236.91
2023-03-28T21:41:38.852Z,100243.72
2023-03-28T21:46:42.732Z,100241.22
2023-03-28T21:51:46.884Z,100238.53
2023-03-28T21:56:50.777Z,100230.88
2023-03-28T22:01:54.913Z,100225.88
2023-03-28T22:06:58.775Z,100242.66
2023-03-28T22:12:06.268Z,100214.75
2023-03-28T22:17:10.434Z,100228.47
2023-03-28T22:22:18.795Z,100226.16
2023-03-28T22:27:23.202Z,100213.66
2023-03-28T22:32:28.136Z,100209.47
2023-03-28T22:37:32.416Z,100189.28
2023-03-28T22:42:37.705Z,100207.16
2023-03-28T22:47:42.849Z,100190.66
2023-03-28T22:52:50.703Z,100198.81
2023-03-28T22:57:54.594Z,100189.09
2023-03-28T23:02:58.572Z,100176.75
2023-03-28T23:08:02.523Z,100145.47
2023-03-28T23:13:06.629Z,100180.09
2023-03-28T23:18:11.634Z,100182.41
2023-03-28T23:23:16.006Z,100176.94
2023-03-28T23:28:20.373Z,100168.06
2023-03-28T23:33:24.810Z,100159.91
2023-03-28T23:38:29.250Z,100165.91
2023-03-28T23:43:33.252Z,100151.56
2023-03-28T23:48:37.313Z,100143.03
2023-03-28T23:53:41.106Z,100134.31
2023-03-28T23:58:45.199Z,100118.84
